createdAt,value
2019-03-12T00:02:18.724Z,28.30
2019-03-12T00:04:45.533Z,24.93
2019-03-12T00:07:12.545Z,26.63
2019-03-12T00:09:39.414Z,27.47
2019-03-12T00:12:06.291Z,25.70
2019-03-12T00:14:33.326Z,27.07
2019-03-12T00:17:00.125Z,27.40
2019-03-12T00:19:27.078Z,30.97
2019-03-12T00:21:53.959Z,24.73
2019-03-12T00:24:20.830Z,26.47
2019-03-12T00:26:47.639Z,24.97
2019-03-12T00:29:14.540Z,23.07
2019-03-12T00:31:41.348Z,26.57
2019-03-12T00:34:08.358Z,24.10
2019-03-12T00:36:35.219Z,21.70
2019-03-12T00:39:03.063Z,24.50
2019-03-12T00:41:30.322Z,33.90
2019-03-12T00:43:57.167Z,29.80
2019-03-12T00:46:26.949Z,26.37
2019-03-12T00:48:52.707Z,23.67
2019-03-12T00:51:19.869Z,30.37
2019-03-12T00:53:46.735Z,28.13
2019-03-12T00:56:13.532Z,28.60
2019-03-12T00:58:40.435Z,26.80
2019-03-12T01:01:07.259Z,28.90
2019-03-12T01:03:34.079Z,33.63
2019-03-12T01:06:02.073Z,37.37
2019-03-12T01:08:28.885Z,32.23
2019-03-12T01:10:55.688Z,31.77
2019-03-12T01:13:22.534Z,26.13
2019-03-12T01:15:49.439Z,25.73
2019-03-12T01:18:18.347Z,31.73
2019-03-12T01:20:45.463Z,27.07
2019-03-12T01:23:12.339Z,28.43
2019-03-12T01:25:39.152Z,25.53
2019-03-12T01:28:05.994Z,29.00
2019-03-12T01:30:32.768Z,28.67
2019-03-12T01:32:59.568Z,32.93
2019-03-12T01:35:26.422Z,25.77
2019-03-12T01:37:53.336Z,29.57
2019-03-12T01:40:20.152Z,27.67
2019-03-12T01:42:46.992Z,28.30
2019-03-12T01:45:14.020Z,25.80
2019-03-12T01:47:41.011Z,28.00
2019-03-12T01:50:08.309Z,24.20
2019-03-12T01:52:35.155Z,25.80
2019-03-12T01:55:02.161Z,22.97
2019-03-12T01:57:29.100Z,25.50
2019-03-12T01:59:55.919Z,23.50
2019-03-12T02:02:22.734Z,23.13
2019-03-12T02:04:49.644Z,23.50
2019-03-12T02:07:16.407Z,30.43
2019-03-12T02:09:43.212Z,26.80
2019-03-12T02:12:10.157Z,28.20
2019-03-12T02:14:36.987Z,27.80
2019-03-12T02:17:03.887Z,24.00
2019-03-12T02:19:30.689Z,25.03
2019-03-12T02:21:57.471Z,27.77
2019-03-12T02:24:24.326Z,31.87
2019-03-12T02:26:51.196Z,27.13
2019-03-12T02:29:17.997Z,23.03
2019-03-12T02:31:44.944Z,27.53
2019-03-12T02:34:11.741Z,30.27
2019-03-12T02:36:38.591Z,30.07
2019-03-12T02:39:05.612Z,27.70
2019-03-12T02:41:32.401Z,30.77
2019-03-12T02:43:59.468Z,30.57
2019-03-12T02:46:26.244Z,26.60
2019-03-12T02:48:53.374Z,27.80
2019-03-12T02:51:20.245Z,28.10
2019-03-12T02:53:47.361Z,27.97
2019-03-12T02:56:14.535Z,26.43
2019-03-12T02:58:41.649Z,33.83
2019-03-12T03:01:08.455Z,31.10
2019-03-12T03:03:35.391Z,26.83
2019-03-12T03:06:09.836Z,31.97
2019-03-12T03:08:36.697Z,28.60
2019-03-12T03:11:03.524Z,35.33
2019-03-12T03:13:30.296Z,26.37
2019-03-12T03:15:57.068Z,30.77
2019-03-12T03:18:23.923Z,31.60
2019-03-12T03:20:51.151Z,29.30
2019-03-12T03:23:18.009Z,30.80
2019-03-12T03:25:44.843Z,30.00
2019-03-12T03:28:11.646Z,30.23
2019-03-12T03:30:38.460Z,27.47
2019-03-12T03:33:05.305Z,30.53
2019-03-12T03:35:32.171Z,33.13
2019-03-12T03:37:59.026Z,32.13
2019-03-12T03:40:26.633Z,36.47
2019-03-12T03:42:53.415Z,34.43
2019-03-12T03:45:20.373Z,34.83
2019-03-12T03:47:47.320Z,38.73
2019-03-12T03:50:14.334Z,31.70
2019-03-12T03:52:41.241Z,29.43
2019-03-12T03:55:09.145Z,32.90
2019-03-12T03:57:35.953Z,35.13
2019-03-12T04:00:03.655Z,34.80
2019-03-12T04:02:30.568Z,37.13
2019-03-12T04:04:57.427Z,30.17
2019-03-12T04:07:24.248Z,36.40
2019-03-12T04:09:51.080Z,39.27
2019-03-12T04:12:17.895Z,32.73
2019-03-12T04:14:44.656Z,25.90
2019-03-12T04:17:11.526Z,30.97
2019-03-12T04:19:38.434Z,34.33
2019-03-12T04:22:05.392Z,31.70
2019-03-12T04:24:32.211Z,29.40
2019-03-12T04:26:59.005Z,28.77
2019-03-12T04:29:25.816Z,31.80
2019-03-12T04:31:52.622Z,31.60
2019-03-12T04:34:23.747Z,31.40
2019-03-12T04:36:50.784Z,30.53
2019-03-12T04:39:17.680Z,31.37
2019-03-12T04:41:44.493Z,27.37
2019-03-12T04:44:11.314Z,24.37
2019-03-12T04:46:38.231Z,25.73
2019-03-12T04:49:05.273Z,23.33
2019-03-12T04:51:32.047Z,28.03
2019-03-12T04:53:58.852Z,24.47
2019-03-12T04:56:25.868Z,30.27
2019-03-12T04:58:52.635Z,29.40
2019-03-12T05:01:19.459Z,33.77
2019-03-12T05:03:46.325Z,35.20
2019-03-12T05:06:13.476Z,23.23
2019-03-12T05:08:40.533Z,29.83
2019-03-12T05:11:07.312Z,25.70
2019-03-12T05:13:34.080Z,26.43
2019-03-12T05:16:00.874Z,20.23
2019-03-12T05:18:27.639Z,27.43
2019-03-12T05:20:54.432Z,17.87
2019-03-12T05:23:21.307Z,28.03
2019-03-12T05:25:48.115Z,19.70
2019-03-12T05:28:14.918Z,23.70
2019-03-12T05:30:41.774Z,17.83
2019-03-12T05:33:08.623Z,20.80
2019-03-12T05:35:35.408Z,24.03
2019-03-12T05:38:02.242Z,17.67
2019-03-12T05:40:29.007Z,22.37
2019-03-12T05:42:55.817Z,20.63
2019-03-12T05:45:22.615Z,15.27
2019-03-12T05:47:49.422Z,13.67
2019-03-12T05:50:16.229Z,20.30
2019-03-12T05:52:43.064Z,16.43
2019-03-12T05:55:09.962Z,17.10
2019-03-12T05:57:56.472Z,18.53
2019-03-12T06:00:24.333Z,16.80
2019-03-12T06:02:51.134Z,19.43
2019-03-12T06:05:17.974Z,16.43
2019-03-12T06:07:44.876Z,17.27
2019-03-12T06:10:11.900Z,19.40
2019-03-12T06:12:38.699Z,13.97
2019-03-12T06:15:05.811Z,15.47
2019-03-12T06:17:32.592Z,13.20
2019-03-12T06:19:59.697Z,18.30
2019-03-12T06:22:26.471Z,16.20
2019-03-12T06:24:53.253Z,13.20
2019-03-12T06:27:20.090Z,10.60
2019-03-12T06:29:46.889Z,10.17
2019-03-12T06:32:33.433Z,19.47
2019-03-12T06:35:19.941Z,18.40
2019-03-12T06:38:06.843Z,15.80
2019-03-12T06:40:39.468Z,17.20
2019-03-12T06:43:17.536Z,15.03
2019-03-12T06:45:51.391Z,21.23
2019-03-12T06:48:36.899Z,23.00
2019-03-12T06:51:09.985Z,21.67
2019-03-12T06:53:59.395Z,14.03
2019-03-12T06:56:45.988Z,15.93
2019-03-12T06:59:25.929Z,21.00
2019-03-12T07:02:03.418Z,15.13
2019-03-12T07:05:05.061Z,21.70
2019-03-12T07:07:50.617Z,19.43
2019-03-12T07:10:43.330Z,15.90
2019-03-12T07:13:28.476Z,31.53
2019-03-12T07:16:09.049Z,21.63
2019-03-12T07:18:53.858Z,18.60
2019-03-12T07:21:27.287Z,20.77
2019-03-12T07:24:15.848Z,21.17
2019-03-12T07:26:54.740Z,22.33
2019-03-12T07:29:37.252Z,17.50
2019-03-12T07:32:17.431Z,22.90
2019-03-12T07:34:52.064Z,50.40
2019-03-12T07:37:38.685Z,29.40
2019-03-12T07:40:15.725Z,24.67
2019-03-12T07:43:05.360Z,21.60
2019-03-12T07:45:36.855Z,28.53
2019-03-12T07:48:26.052Z,30.80
2019-03-12T07:51:18.603Z,27.87
2019-03-12T07:53:59.802Z,51.07
2019-03-12T07:56:30.079Z,33.57
2019-03-12T07:59:23.696Z,22.20
2019-03-12T08:01:58.983Z,19.20
2019-03-12T08:04:43.784Z,18.50
2019-03-12T08:07:29.521Z,24.00
2019-03-12T08:10:02.543Z,19.23
2019-03-12T08:12:35.946Z,23.27
2019-03-12T08:15:23.382Z,23.90
2019-03-12T08:18:11.833Z,23.63
2019-03-12T08:20:47.195Z,26.00
2019-03-12T08:23:26.206Z,25.17
2019-03-12T08:26:16.060Z,21.80
2019-03-12T08:28:49.859Z,29.93
2019-03-12T08:31:42.448Z,24.10
2019-03-12T08:34:34.143Z,21.10
2019-03-12T08:37:09.392Z,18.63
2019-03-12T08:40:04.958Z,18.70
2019-03-12T08:42:38.025Z,15.10
2019-03-12T08:45:15.725Z,24.20
2019-03-12T08:48:06.235Z,15.10
2019-03-12T08:50:40.288Z,19.13
2019-03-12T08:53:14.116Z,25.20
2019-03-12T08:56:09.453Z,15.90
2019-03-12T08:58:48.252Z,15.80
2019-03-12T09:01:20.841Z,21.57
2019-03-12T09:04:07.110Z,23.47
2019-03-12T09:06:40.336Z,19.30
2019-03-12T09:09:22.144Z,15.03
2019-03-12T09:12:14.027Z,16.83
2019-03-12T09:14:53.063Z,16.57
2019-03-12T09:17:45.300Z,13.30
2019-03-12T09:20:40.898Z,13.37
2019-03-12T09:23:21.691Z,11.57
2019-03-12T09:26:07.272Z,19.73
2019-03-12T09:28:52.409Z,13.73
2019-03-12T09:31:35.272Z,14.67
2019-03-12T09:34:20.693Z,14.00
2019-03-12T09:37:05.997Z,12.23
2019-03-12T09:40:04.600Z,11.93
2019-03-12T09:42:50.000Z,12.00
2019-03-12T09:45:25.177Z,13.77
2019-03-12T09:47:58.555Z,13.37
2019-03-12T09:50:47.798Z,13.10
2019-03-12T09:53:37.161Z,12.13
2019-03-12T09:56:10.385Z,9.80
2019-03-12T09:58:42.657Z,9.90
2019-03-12T10:01:41.428Z,11.67
2019-03-12T10:04:24.612Z,12.70
2019-03-12T10:07:02.563Z,14.00
2019-03-12T10:09:42.625Z,14.00
2019-03-12T10:12:36.601Z,11.97
2019-03-12T10:15:21.908Z,8.17
2019-03-12T10:18:12.245Z,9.40
2019-03-12T10:20:55.796Z,10.77
2019-03-12T10:23:33.197Z,10.40
2019-03-12T10:26:11.292Z,8.40
2019-03-12T10:28:56.281Z,8.10
2019-03-12T10:31:33.292Z,8.77
2019-03-12T10:34:13.380Z,11.30
2019-03-12T10:37:16.502Z,5.10
2019-03-12T10:39:54.167Z,11.57
2019-03-12T10:42:30.370Z,9.27
2019-03-12T10:45:11.435Z,9.90
2019-03-12T10:47:38.370Z,7.27
2019-03-12T10:50:05.295Z,7.40
2019-03-12T10:52:32.113Z,8.30
2019-03-12T10:55:11.759Z,4.30
2019-03-12T10:57:27.608Z,6.30
2019-03-12T10:59:54.389Z,6.80
2019-03-12T11:02:21.209Z,5.70
2019-03-12T11:04:48.256Z,5.20
2019-03-12T11:07:16.941Z,4.17
2019-03-12T11:09:44.076Z,4.03
2019-03-12T11:12:10.987Z,9.53
2019-03-12T11:14:37.974Z,14.67
2019-03-12T11:17:04.801Z,10.57
2019-03-12T11:19:31.617Z,8.60
2019-03-12T11:21:58.432Z,5.90
2019-03-12T11:24:25.351Z,3.30
2019-03-12T11:26:52.180Z,5.63
2019-03-12T11:29:19.058Z,3.63
2019-03-12T11:31:46.054Z,4.70
2019-03-12T11:34:13.048Z,10.00
2019-03-12T11:36:39.832Z,6.13
2019-03-12T11:39:06.764Z,6.47
2019-03-12T11:41:33.597Z,5.57
2019-03-12T11:44:00.506Z,4.77
2019-03-12T11:46:27.333Z,19.10
2019-03-12T11:55:20.463Z,12.60
2019-03-12T11:57:47.260Z,5.30
2019-03-12T12:00:28.160Z,6.23
2019-03-12T12:03:00.422Z,4.43
2019-03-12T12:05:23.844Z,5.00
2019-03-12T12:07:50.448Z,4.30
2019-03-12T12:10:17.283Z,8.10
2019-03-12T12:12:44.014Z,4.80
2019-03-12T12:15:11.096Z,9.93
2019-03-12T12:17:37.711Z,12.20
2019-03-12T12:20:04.518Z,12.00
2019-03-12T12:22:31.343Z,6.27
2019-03-12T12:24:58.444Z,4.53
2019-03-12T12:27:25.011Z,5.53
2019-03-12T12:29:51.673Z,3.67
2019-03-12T12:32:18.251Z,4.47
2019-03-12T12:34:44.844Z,3.63
2019-03-12T12:37:13.729Z,6.27
2019-03-12T12:39:40.058Z,5.00
2019-03-12T12:42:06.681Z,5.33
2019-03-12T12:44:33.289Z,3.90
2019-03-12T12:46:59.929Z,4.87
2019-03-12T12:49:26.566Z,8.63
2019-03-12T12:51:53.228Z,3.33
2019-03-12T12:54:20.255Z,5.77
2019-03-12T12:56:46.858Z,5.73
2019-03-12T12:59:13.598Z,5.67
2019-03-12T13:01:40.276Z,6.43
2019-03-12T13:04:06.882Z,5.77
2019-03-12T13:06:33.639Z,3.30
2019-03-12T13:09:00.403Z,3.53
2019-03-12T13:11:27.164Z,9.57
2019-03-12T13:13:54.107Z,6.93
2019-03-12T13:16:25.501Z,4.20
2019-03-12T13:18:49.219Z,6.37
2019-03-12T13:21:15.908Z,9.67
2019-03-12T13:23:42.480Z,3.87
2019-03-12T13:26:09.145Z,9.07
2019-03-12T13:28:35.772Z,7.27
2019-03-12T13:31:02.393Z,10.90
2019-03-12T13:33:29.057Z,6.10
2019-03-12T13:35:55.673Z,8.87
2019-03-12T13:38:22.526Z,6.20
2019-03-12T13:40:49.706Z,6.03
2019-03-12T13:43:16.859Z,4.57
2019-03-12T13:45:43.573Z,6.43
2019-03-12T13:48:10.424Z,5.00
2019-03-12T13:50:37.509Z,5.10
2019-03-12T13:53:04.204Z,24.03
2019-03-12T13:55:30.952Z,13.33
2019-03-12T13:57:57.692Z,7.07
2019-03-12T14:00:24.288Z,10.50
2019-03-12T14:02:51.276Z,5.40
2019-03-12T14:05:18.162Z,8.90
2019-03-12T14:07:45.167Z,4.50
2019-03-12T14:10:14.385Z,11.90
2019-03-12T14:12:41.112Z,14.00
2019-03-12T14:15:09.804Z,14.33
2019-03-12T14:17:36.423Z,7.37
2019-03-12T14:20:39.848Z,8.90
2019-03-12T14:23:06.671Z,11.03
2019-03-12T14:25:33.534Z,9.07
2019-03-12T14:28:00.164Z,11.97
2019-03-12T14:30:26.792Z,8.60
2019-03-12T14:32:53.516Z,4.40
2019-03-12T14:35:20.565Z,6.33
2019-03-12T14:37:47.137Z,8.53
2019-03-12T14:40:13.955Z,9.23
2019-03-12T14:42:40.621Z,12.13
2019-03-12T14:45:10.446Z,12.60
2019-03-12T14:47:37.515Z,7.67
2019-03-12T14:50:06.107Z,11.73
2019-03-12T14:52:36.753Z,14.30
2019-03-12T14:55:04.336Z,10.10
2019-03-12T14:57:30.968Z,8.43
2019-03-12T14:59:57.541Z,10.40
2019-03-12T15:02:24.319Z,11.10
2019-03-12T15:04:50.931Z,10.60
2019-03-12T15:07:17.536Z,10.67
2019-03-12T15:09:44.167Z,10.90
2019-03-12T15:12:12.071Z,17.10
2019-03-12T15:14:38.985Z,8.07
2019-03-12T15:17:05.606Z,17.77
2019-03-12T15:19:32.243Z,9.90
2019-03-12T15:21:58.840Z,9.10
2019-03-12T15:24:25.428Z,13.50
2019-03-12T15:26:52.084Z,12.60
2019-03-12T15:29:18.744Z,11.50
2019-03-12T15:31:45.420Z,12.47
2019-03-12T15:34:12.776Z,11.87
2019-03-12T15:36:39.557Z,10.30
2019-03-12T15:39:07.331Z,9.93
2019-03-12T15:41:33.964Z,11.43
2019-03-12T15:44:01.567Z,7.80
2019-03-12T15:46:28.200Z,13.30
2019-03-12T15:48:54.905Z,13.43
2019-03-12T15:51:21.607Z,18.10
2019-03-12T15:53:48.184Z,10.13
2019-03-12T15:56:15.127Z,17.70
2019-03-12T15:58:41.804Z,9.70
2019-03-12T16:01:08.484Z,8.30
2019-03-12T16:03:35.201Z,11.63
2019-03-12T16:06:01.796Z,18.73
2019-03-12T16:08:28.413Z,9.43
2019-03-12T16:10:58.300Z,10.80
2019-03-12T16:13:23.873Z,11.90
2019-03-12T16:15:50.590Z,11.77
2019-03-12T16:18:17.261Z,11.10
2019-03-12T16:20:43.849Z,17.27
2019-03-12T16:23:10.443Z,8.70
2019-03-12T16:25:37.077Z,14.40
2019-03-12T16:28:03.804Z,11.60
2019-03-12T16:30:30.423Z,8.93
2019-03-12T16:32:57.061Z,16.40
2019-03-12T16:35:23.681Z,14.47
2019-03-12T16:37:50.318Z,10.60
2019-03-12T16:40:16.940Z,9.80
2019-03-12T16:42:43.582Z,11.17
2019-03-12T16:45:10.320Z,14.60
2019-03-12T16:47:37.028Z,7.20
2019-03-12T16:50:04.095Z,11.97
2019-03-12T16:52:30.681Z,14.20
2019-03-12T16:54:57.263Z,11.57
2019-03-12T16:57:23.906Z,9.53
2019-03-12T16:59:50.567Z,8.67
2019-03-12T17:02:17.213Z,14.30
2019-03-12T17:04:43.863Z,13.67
2019-03-12T17:07:10.498Z,10.30
2019-03-12T17:09:38.946Z,13.83
2019-03-12T17:12:05.825Z,7.20
2019-03-12T17:14:38.693Z,13.70
2019-03-12T17:17:01.033Z,12.00
2019-03-12T17:19:27.996Z,11.10
2019-03-12T17:21:54.654Z,9.90
2019-03-12T17:24:21.737Z,9.63
2019-03-12T17:26:48.328Z,7.73
2019-03-12T17:29:16.190Z,8.87
2019-03-12T17:31:43.256Z,11.43
2019-03-12T17:34:10.246Z,10.23
2019-03-12T17:36:37.104Z,10.00
2019-03-12T17:39:05.695Z,7.53
2019-03-12T17:41:32.355Z,6.20
2019-03-12T17:43:58.987Z,11.13
2019-03-12T17:46:25.716Z,10.27
2019-03-12T17:48:52.367Z,13.23
2019-03-12T17:51:19.103Z,10.27
2019-03-12T17:53:45.774Z,13.63
2019-03-12T17:56:12.453Z,11.07
2019-03-12T17:58:58.950Z,9.83
2019-03-12T18:01:29.752Z,9.77
2019-03-12T18:03:54.507Z,8.50
2019-03-12T18:06:21.326Z,11.03
2019-03-12T18:08:48.004Z,18.27
2019-03-12T18:11:14.629Z,13.23
2019-03-12T18:13:41.262Z,14.33
2019-03-12T18:16:07.975Z,7.17
2019-03-12T18:18:35.280Z,8.60
2019-03-12T18:21:01.927Z,15.40
2019-03-12T18:23:28.858Z,10.10
2019-03-12T18:25:55.556Z,10.93
2019-03-12T18:28:22.420Z,18.90
2019-03-12T18:30:51.273Z,10.03
2019-03-12T18:33:18.721Z,9.87
2019-03-12T18:35:45.440Z,25.10
2019-03-12T18:38:12.032Z,10.30
2019-03-12T18:40:38.900Z,9.10
2019-03-12T18:43:05.617Z,10.27
2019-03-12T18:45:32.377Z,13.23
2019-03-12T18:47:59.238Z,12.60
2019-03-12T18:50:26.067Z,8.37
2019-03-12T18:52:52.781Z,12.40
2019-03-12T18:55:39.553Z,9.30
2019-03-12T18:58:06.282Z,9.50
2019-03-12T19:00:33.036Z,7.20
2019-03-12T19:02:59.823Z,22.03
2019-03-12T19:05:28.227Z,11.43
2019-03-12T19:07:55.141Z,14.70
2019-03-12T19:10:22.127Z,8.30
2019-03-12T19:12:49.007Z,10.57
2019-03-12T19:15:16.691Z,8.33
2019-03-12T19:17:43.563Z,10.27
2019-03-12T19:20:10.421Z,9.23
2019-03-12T19:22:37.151Z,11.90
2019-03-12T19:25:04.390Z,8.17
2019-03-12T19:27:31.189Z,17.00
2019-03-12T19:29:57.872Z,7.53
2019-03-12T19:32:30.784Z,14.10
2019-03-12T19:34:57.368Z,13.33
2019-03-12T19:37:24.065Z,8.13
2019-03-12T19:39:50.813Z,10.90
2019-03-12T19:42:17.411Z,9.47
2019-03-12T19:44:44.123Z,10.70
2019-03-12T19:47:11.154Z,8.23
2019-03-12T19:49:37.879Z,5.00
2019-03-12T19:52:06.203Z,13.30
2019-03-12T19:54:33.249Z,7.07
2019-03-12T19:57:00.049Z,10.70
2019-03-12T19:59:26.780Z,9.30
2019-03-12T20:01:58.858Z,6.30
2019-03-12T20:04:25.675Z,12.30
2019-03-12T20:06:52.696Z,16.90
2019-03-12T20:09:44.779Z,12.17
2019-03-12T20:12:42.996Z,11.63
2019-03-12T20:15:43.161Z,7.30
2019-03-12T20:18:55.048Z,6.93
2019-03-12T20:22:18.439Z,6.93
2019-03-12T20:25:22.314Z,7.20
2019-03-12T20:28:36.469Z,6.40
2019-03-12T20:31:54.887Z,7.17
2019-03-12T20:35:05.908Z,6.60
2019-03-12T20:38:23.264Z,6.00
2019-03-12T20:42:05.833Z,9.70
2019-03-12T20:45:12.785Z,8.00
2019-03-12T20:48:20.062Z,6.97
2019-03-12T20:51:43.421Z,9.00
2019-03-12T20:54:55.882Z,5.90
2019-03-12T20:57:57.416Z,12.07
2019-03-12T21:01:13.192Z,4.40
2019-03-12T21:04:22.471Z,7.20
2019-03-12T21:07:27.643Z,8.23
2019-03-12T21:10:31.450Z,5.23
2019-03-12T21:13:48.925Z,7.17
2019-03-12T21:17:00.585Z,6.10
2019-03-12T21:20:04.420Z,5.60
2019-03-12T21:22:56.197Z,12.00
2019-03-12T21:25:52.717Z,8.87
2019-03-12T21:28:54.910Z,6.83
2019-03-12T21:31:21.885Z,6.60
2019-03-12T21:33:48.719Z,7.60
2019-03-12T21:36:15.486Z,9.37
2019-03-12T21:38:42.224Z,12.07
2019-03-12T21:41:09.189Z,7.77
2019-03-12T21:43:35.870Z,5.70
2019-03-12T21:46:02.896Z,5.00
2019-03-12T21:48:29.915Z,8.70
2019-03-12T21:50:56.541Z,6.93
2019-03-12T21:53:23.151Z,4.53
2019-03-12T21:55:49.916Z,3.90
2019-03-12T21:58:16.523Z,6.10
2019-03-12T22:00:43.250Z,6.77
2019-03-12T22:03:10.146Z,7.73
2019-03-12T22:05:36.767Z,5.73
2019-03-12T22:08:04.631Z,5.73
2019-03-12T22:10:31.302Z,7.20
2019-03-12T22:12:58.012Z,4.83
2019-03-12T22:15:24.772Z,7.50
2019-03-12T22:17:51.474Z,5.50
2019-03-12T22:20:18.158Z,6.10
2019-03-12T22:22:49.636Z,7.90
2019-03-12T22:25:16.554Z,4.30
2019-03-12T22:27:43.438Z,7.53
2019-03-12T22:30:13.529Z,5.80
2019-03-12T22:32:43.363Z,8.17
2019-03-12T22:35:13.901Z,10.77
2019-03-12T22:37:44.363Z,7.57
2019-03-12T22:40:14.875Z,8.17
2019-03-12T22:42:41.769Z,5.70
2019-03-12T22:45:09.156Z,7.43
2019-03-12T22:47:37.111Z,6.17
2019-03-12T22:50:04.340Z,6.30
2019-03-12T22:52:31.071Z,4.70
2019-03-12T22:54:57.889Z,4.63
2019-03-12T22:57:24.517Z,5.60
2019-03-12T22:59:51.725Z,6.13
2019-03-12T23:02:18.520Z,2.77
2019-03-12T23:04:45.544Z,6.83
2019-03-12T23:07:12.302Z,5.87
2019-03-12T23:09:39.512Z,10.47
2019-03-12T23:12:06.167Z,5.30
2019-03-12T23:14:33.025Z,7.73
2019-03-12T23:16:59.771Z,4.90
2019-03-12T23:19:26.599Z,3.23
2019-03-12T23:21:53.278Z,3.53
2019-03-12T23:24:20.266Z,2.70
2019-03-12T23:26:46.957Z,2.57
2019-03-12T23:29:13.836Z,4.10
2019-03-12T23:31:40.627Z,5.10
2019-03-12T23:34:07.288Z,4.73
2019-03-12T23:36:34.012Z,3.50
2019-03-12T23:39:00.719Z,6.20
2019-03-12T23:41:27.341Z,3.17
2019-03-12T23:43:54.127Z,3.80
2019-03-12T23:46:20.920Z,8.60
2019-03-12T23:48:47.595Z,9.77
2019-03-12T23:51:14.416Z,5.30
2019-03-12T23:53:41.022Z,6.13
2019-03-12T23:56:07.993Z,3.00
2019-03-12T23:58:35.127Z,2.73
